sensor_id;sensor_type;location;lat;lon;timestamp;P1;durP1;ratioP1;P2;durP2;ratioP2
14933;SDS011;7560;51.364;12.384;2023-05-27T00:03:59;8.23;;;3.50;;
14933;SDS011;7560;51.364;12.384;2023-05-27T00:09:03;9.60;;;4.35;;
14933;SDS011;7560;51.364;12.384;2023-05-27T00:14:05;10.57;;;4.32;;
14933;SDS011;7560;51.364;12.384;2023-05-27T00:19:07;10.60;;;4.20;;
14933;SDS011;7560;51.364;12.384;2023-05-27T00:24:09;11.70;;;4.50;;
14933;SDS011;7560;51.364;12.384;2023-05-27T00:29:11;10.95;;;4.20;;
14933;SDS011;7560;51.364;12.384;2023-05-27T00:34:13;7.75;;;3.72;;
14933;SDS011;7560;51.364;12.384;2023-05-27T00:39:14;13.90;;;4.50;;
14933;SDS011;7560;51.364;12.384;2023-05-27T00:44:17;9.82;;;3.92;;
14933;SDS011;7560;51.364;12.384;2023-05-27T00:49:19;9.02;;;5.00;;
14933;SDS011;7560;51.364;12.384;2023-05-27T00:54:41;12.00;;;4.50;;
14933;SDS011;7560;51.364;12.384;2023-05-27T00:59:43;12.98;;;4.57;;
14933;SDS011;7560;51.364;12.384;2023-05-27T01:04:45;13.80;;;4.45;;
14933;SDS011;7560;51.364;12.384;2023-05-27T01:09:49;9.77;;;4.15;;
14933;SDS011;7560;51.364;12.384;2023-05-27T01:14:56;11.38;;;4.05;;
14933;SDS011;7560;51.364;12.384;2023-05-27T01:19:59;8.45;;;4.40;;
14933;SDS011;7560;51.364;12.384;2023-05-27T01:25:03;8.82;;;4.07;;
14933;SDS011;7560;51.364;12.384;2023-05-27T01:30:06;8.93;;;4.20;;
14933;SDS011;7560;51.364;12.384;2023-05-27T01:35:10;11.90;;;4.05;;
14933;SDS011;7560;51.364;12.384;2023-05-27T01:40:25;11.25;;;4.07;;
14933;SDS011;7560;51.364;12.384;2023-05-27T01:45:29;11.00;;;4.63;;
14933;SDS011;7560;51.364;12.384;2023-05-27T01:50:32;9.77;;;4.43;;
14933;SDS011;7560;51.364;12.384;2023-05-27T01:55:34;11.93;;;4.20;;
14933;SDS011;7560;51.364;12.384;2023-05-27T02:00:36;10.98;;;4.47;;
14933;SDS011;7560;51.364;12.384;2023-05-27T02:05:38;12.43;;;4.47;;
14933;SDS011;7560;51.364;12.384;2023-05-27T02:10:41;14.32;;;4.60;;
14933;SDS011;7560;51.364;12.384;2023-05-27T02:15:43;12.23;;;4.53;;
14933;SDS011;7560;51.364;12.384;2023-05-27T02:20:45;11.07;;;4.50;;
14933;SDS011;7560;51.364;12.384;2023-05-27T02:25:47;7.30;;;4.45;;
14933;SDS011;7560;51.364;12.384;2023-05-27T02:30:50;10.05;;;4.70;;
14933;SDS011;7560;51.364;12.384;2023-05-27T02:35:52;11.02;;;4.90;;
14933;SDS011;7560;51.364;12.384;2023-05-27T02:40:54;13.35;;;4.72;;
14933;SDS011;7560;51.364;12.384;2023-05-27T02:45:56;15.05;;;4.82;;
14933;SDS011;7560;51.364;12.384;2023-05-27T02:50:58;11.30;;;4.60;;
14933;SDS011;7560;51.364;12.384;2023-05-27T02:55:59;11.50;;;4.68;;
14933;SDS011;7560;51.364;12.384;2023-05-27T03:01:01;11.27;;;4.75;;
14933;SDS011;7560;51.364;12.384;2023-05-27T03:06:03;10.25;;;4.55;;
14933;SDS011;7560;51.364;12.384;2023-05-27T03:11:05;11.60;;;4.80;;
14933;SDS011;7560;51.364;12.384;2023-05-27T03:16:07;13.23;;;4.82;;
14933;SDS011;7560;51.364;12.384;2023-05-27T03:21:09;10.05;;;4.80;;
14933;SDS011;7560;51.364;12.384;2023-05-27T03:26:11;12.00;;;4.95;;
14933;SDS011;7560;51.364;12.384;2023-05-27T03:31:13;11.80;;;4.97;;
14933;SDS011;7560;51.364;12.384;2023-05-27T03:36:15;12.85;;;5.10;;
14933;SDS011;7560;51.364;12.384;2023-05-27T03:41:17;16.98;;;4.93;;
14933;SDS011;7560;51.364;12.384;2023-05-27T03:46:18;13.70;;;4.40;;
14933;SDS011;7560;51.364;12.384;2023-05-27T03:51:20;9.88;;;4.85;;
14933;SDS011;7560;51.364;12.384;2023-05-27T03:56:23;10.98;;;4.63;;
14933;SDS011;7560;51.364;12.384;2023-05-27T04:01:24;11.10;;;5.03;;
14933;SDS011;7560;51.364;12.384;2023-05-27T04:06:28;8.27;;;4.60;;
14933;SDS011;7560;51.364;12.384;2023-05-27T04:11:30;13.95;;;4.72;;
14933;SDS011;7560;51.364;12.384;2023-05-27T04:16:32;11.50;;;4.70;;
14933;SDS011;7560;51.364;12.384;2023-05-27T04:21:35;11.13;;;4.65;;
14933;SDS011;7560;51.364;12.384;2023-05-27T04:26:37;9.80;;;4.60;;
14933;SDS011;7560;51.364;12.384;2023-05-27T04:31:39;11.82;;;4.95;;
14933;SDS011;7560;51.364;12.384;2023-05-27T04:36:41;11.10;;;4.80;;
14933;SDS011;7560;51.364;12.384;2023-05-27T04:41:43;11.38;;;4.38;;
14933;SDS011;7560;51.364;12.384;2023-05-27T04:46:46;8.45;;;4.35;;
14933;SDS011;7560;51.364;12.384;2023-05-27T04:51:48;10.13;;;4.60;;
14933;SDS011;7560;51.364;12.384;2023-05-27T04:56:50;11.07;;;4.40;;
14933;SDS011;7560;51.364;12.384;2023-05-27T05:01:53;16.20;;;4.57;;
14933;SDS011;7560;51.364;12.384;2023-05-27T05:07:22;12.02;;;4.70;;
14933;SDS011;7560;51.364;12.384;2023-05-27T05:12:24;12.63;;;4.57;;
14933;SDS011;7560;51.364;12.384;2023-05-27T05:17:29;9.93;;;4.30;;
14933;SDS011;7560;51.364;12.384;2023-05-27T05:22:31;11.45;;;4.70;;
14933;SDS011;7560;51.364;12.384;2023-05-27T05:27:33;8.80;;;4.20;;
14933;SDS011;7560;51.364;12.384;2023-05-27T05:32:35;13.55;;;4.75;;
14933;SDS011;7560;51.364;12.384;2023-05-27T05:37:37;9.65;;;4.80;;
14933;SDS011;7560;51.364;12.384;2023-05-27T05:42:39;12.73;;;4.60;;
14933;SDS011;7560;51.364;12.384;2023-05-27T05:47:40;14.05;;;5.07;;
14933;SDS011;7560;51.364;12.384;2023-05-27T05:52:42;10.43;;;4.60;;
14933;SDS011;7560;51.364;12.384;2023-05-27T05:57:44;12.57;;;4.72;;
14933;SDS011;7560;51.364;12.384;2023-05-27T06:02:46;14.93;;;4.82;;
14933;SDS011;7560;51.364;12.384;2023-05-27T06:07:48;12.70;;;4.40;;
14933;SDS011;7560;51.364;12.384;2023-05-27T06:12:50;12.02;;;4.20;;
14933;SDS011;7560;51.364;12.384;2023-05-27T06:17:52;11.05;;;4.18;;
14933;SDS011;7560;51.364;12.384;2023-05-27T06:22:55;9.98;;;4.28;;
14933;SDS011;7560;51.364;12.384;2023-05-27T06:27:57;9.70;;;3.60;;
14933;SDS011;7560;51.364;12.384;2023-05-27T06:32:58;10.55;;;3.85;;
14933;SDS011;7560;51.364;12.384;2023-05-27T06:38:00;11.80;;;3.45;;
14933;SDS011;7560;51.364;12.384;2023-05-27T06:43:02;11.77;;;3.58;;
14933;SDS011;7560;51.364;12.384;2023-05-27T06:48:04;9.73;;;3.13;;
14933;SDS011;7560;51.364;12.384;2023-05-27T06:53:07;7.60;;;2.85;;
14933;SDS011;7560;51.364;12.384;2023-05-27T06:58:09;9.15;;;3.03;;
14933;SDS011;7560;51.364;12.384;2023-05-27T07:03:11;12.10;;;3.55;;
14933;SDS011;7560;51.364;12.384;2023-05-27T07:08:12;10.00;;;3.83;;
14933;SDS011;7560;51.364;12.384;2023-05-27T07:13:15;11.65;;;3.15;;
14933;SDS011;7560;51.364;12.384;2023-05-27T07:18:17;11.65;;;2.83;;
14933;SDS011;7560;51.364;12.384;2023-05-27T07:23:18;12.70;;;3.47;;
14933;SDS011;7560;51.364;12.384;2023-05-27T07:28:21;14.18;;;3.10;;
14933;SDS011;7560;51.364;12.384;2023-05-27T07:33:23;7.85;;;2.85;;
14933;SDS011;7560;51.364;12.384;2023-05-27T07:38:25;7.88;;;2.80;;
14933;SDS011;7560;51.364;12.384;2023-05-27T07:43:27;8.32;;;2.75;;
14933;SDS011;7560;51.364;12.384;2023-05-27T07:48:28;9.35;;;3.00;;
14933;SDS011;7560;51.364;12.384;2023-05-27T07:53:30;8.52;;;2.45;;
14933;SDS011;7560;51.364;12.384;2023-05-27T07:58:32;7.65;;;2.63;;
14933;SDS011;7560;51.364;12.384;2023-05-27T08:03:34;7.65;;;2.42;;
14933;SDS011;7560;51.364;12.384;2023-05-27T08:08:36;8.57;;;2.47;;
14933;SDS011;7560;51.364;12.384;2023-05-27T08:13:38;7.32;;;2.55;;
14933;SDS011;7560;51.364;12.384;2023-05-27T08:18:40;5.80;;;2.50;;
14933;SDS011;7560;51.364;12.384;2023-05-27T08:23:42;7.30;;;2.55;;
14933;SDS011;7560;51.364;12.384;2023-05-27T08:28:43;7.65;;;2.50;;
14933;SDS011;7560;51.364;12.384;2023-05-27T08:33:47;5.40;;;2.58;;
14933;SDS011;7560;51.364;12.384;2023-05-27T08:38:49;7.82;;;2.80;;
14933;SDS011;7560;51.364;12.384;2023-05-27T08:43:50;9.50;;;2.97;;
14933;SDS011;7560;51.364;12.384;2023-05-27T08:49:02;9.30;;;4.18;;
14933;SDS011;7560;51.364;12.384;2023-05-27T08:54:05;7.38;;;3.10;;
14933;SDS011;7560;51.364;12.384;2023-05-27T08:59:07;8.45;;;2.78;;
14933;SDS011;7560;51.364;12.384;2023-05-27T09:04:09;8.85;;;2.67;;
14933;SDS011;7560;51.364;12.384;2023-05-27T09:09:11;5.95;;;2.95;;
14933;SDS011;7560;51.364;12.384;2023-05-27T09:14:22;8.25;;;2.88;;
14933;SDS011;7560;51.364;12.384;2023-05-27T09:19:24;7.55;;;2.72;;
14933;SDS011;7560;51.364;12.384;2023-05-27T09:24:26;6.88;;;1.85;;
14933;SDS011;7560;51.364;12.384;2023-05-27T09:29:28;7.10;;;2.78;;
14933;SDS011;7560;51.364;12.384;2023-05-27T09:34:30;5.40;;;2.35;;
14933;SDS011;7560;51.364;12.384;2023-05-27T09:39:32;5.75;;;2.17;;
14933;SDS011;7560;51.364;12.384;2023-05-27T09:44:36;6.28;;;2.58;;
14933;SDS011;7560;51.364;12.384;2023-05-27T09:49:44;7.93;;;2.00;;
14933;SDS011;7560;51.364;12.384;2023-05-27T09:54:50;7.85;;;3.08;;
14933;SDS011;7560;51.364;12.384;2023-05-27T09:59:52;6.30;;;2.72;;
14933;SDS011;7560;51.364;12.384;2023-05-27T10:04:55;6.50;;;2.70;;
14933;SDS011;7560;51.364;12.384;2023-05-27T10:09:59;8.75;;;2.50;;
14933;SDS011;7560;51.364;12.384;2023-05-27T10:15:01;8.63;;;2.60;;
14933;SDS011;7560;51.364;12.384;2023-05-27T10:20:03;7.72;;;3.03;;
14933;SDS011;7560;51.364;12.384;2023-05-27T10:25:12;6.90;;;3.05;;
14933;SDS011;7560;51.364;12.384;2023-05-27T10:30:14;5.85;;;2.70;;
14933;SDS011;7560;51.364;12.384;2023-05-27T10:35:16;10.50;;;2.92;;
14933;SDS011;7560;51.364;12.384;2023-05-27T10:40:25;7.57;;;3.33;;
14933;SDS011;7560;51.364;12.384;2023-05-27T10:45:33;7.70;;;2.50;;
14933;SDS011;7560;51.364;12.384;2023-05-27T10:50:35;9.23;;;3.30;;
14933;SDS011;7560;51.364;12.384;2023-05-27T10:55:37;9.43;;;2.90;;
14933;SDS011;7560;51.364;12.384;2023-05-27T11:00:39;7.18;;;2.75;;
14933;SDS011;7560;51.364;12.384;2023-05-27T11:05:42;5.15;;;2.60;;
14933;SDS011;7560;51.364;12.384;2023-05-27T11:10:44;7.05;;;2.90;;
14933;SDS011;7560;51.364;12.384;2023-05-27T11:15:46;7.03;;;2.80;;
14933;SDS011;7560;51.364;12.384;2023-05-27T11:20:49;5.65;;;2.67;;
14933;SDS011;7560;51.364;12.384;2023-05-27T11:25:51;5.72;;;2.40;;
14933;SDS011;7560;51.364;12.384;2023-05-27T11:31:01;6.18;;;2.60;;
14933;SDS011;7560;51.364;12.384;2023-05-27T11:36:05;5.85;;;2.95;;
14933;SDS011;7560;51.364;12.384;2023-05-27T11:41:08;6.63;;;2.35;;
14933;SDS011;7560;51.364;12.384;2023-05-27T11:46:10;6.75;;;3.30;;
14933;SDS011;7560;51.364;12.384;2023-05-27T11:51:12;5.03;;;2.80;;
14933;SDS011;7560;51.364;12.384;2023-05-27T11:56:14;4.70;;;2.83;;
14933;SDS011;7560;51.364;12.384;2023-05-27T12:01:16;6.47;;;2.88;;
14933;SDS011;7560;51.364;12.384;2023-05-27T12:06:18;7.55;;;2.80;;
14933;SDS011;7560;51.364;12.384;2023-05-27T12:11:20;7.28;;;2.90;;
14933;SDS011;7560;51.364;12.384;2023-05-27T12:16:23;7.43;;;2.55;;
14933;SDS011;7560;51.364;12.384;2023-05-27T12:21:25;5.75;;;2.70;;
14933;SDS011;7560;51.364;12.384;2023-05-27T12:26:27;5.80;;;2.92;;
14933;SDS011;7560;51.364;12.384;2023-05-27T12:31:29;6.55;;;2.85;;
14933;SDS011;7560;51.364;12.384;2023-05-27T12:36:31;6.97;;;2.92;;
14933;SDS011;7560;51.364;12.384;2023-05-27T12:41:33;7.32;;;2.42;;
14933;SDS011;7560;51.364;12.384;2023-05-27T12:46:35;6.65;;;2.80;;
14933;SDS011;7560;51.364;12.384;2023-05-27T12:51:37;7.53;;;2.78;;
14933;SDS011;7560;51.364;12.384;2023-05-27T12:56:39;6.38;;;2.85;;
14933;SDS011;7560;51.364;12.384;2023-05-27T13:01:42;5.47;;;2.53;;
14933;SDS011;7560;51.364;12.384;2023-05-27T13:06:43;5.07;;;2.30;;
14933;SDS011;7560;51.364;12.384;2023-05-27T13:11:45;7.88;;;2.47;;
14933;SDS011;7560;51.364;12.384;2023-05-27T13:16:48;4.18;;;2.20;;
14933;SDS011;7560;51.364;12.384;2023-05-27T13:21:50;3.95;;;2.30;;
14933;SDS011;7560;51.364;12.384;2023-05-27T13:26:52;6.65;;;2.22;;
14933;SDS011;7560;51.364;12.384;2023-05-27T13:31:54;6.00;;;2.17;;
14933;SDS011;7560;51.364;12.384;2023-05-27T13:36:57;6.30;;;2.40;;
14933;SDS011;7560;51.364;12.384;2023-05-27T13:41:58;5.80;;;2.45;;
14933;SDS011;7560;51.364;12.384;2023-05-27T13:47:00;6.57;;;2.67;;
14933;SDS011;7560;51.364;12.384;2023-05-27T13:52:02;7.72;;;2.58;;
14933;SDS011;7560;51.364;12.384;2023-05-27T13:57:04;5.22;;;2.17;;
14933;SDS011;7560;51.364;12.384;2023-05-27T14:02:06;5.05;;;2.42;;
14933;SDS011;7560;51.364;12.384;2023-05-27T14:07:10;4.93;;;2.00;;
14933;SDS011;7560;51.364;12.384;2023-05-27T14:12:12;3.63;;;2.42;;
14933;SDS011;7560;51.364;12.384;2023-05-27T14:17:14;3.38;;;2.20;;
14933;SDS011;7560;51.364;12.384;2023-05-27T14:22:16;5.93;;;2.15;;
14933;SDS011;7560;51.364;12.384;2023-05-27T14:27:17;3.85;;;2.10;;
14933;SDS011;7560;51.364;12.384;2023-05-27T14:32:19;5.65;;;2.20;;
14933;SDS011;7560;51.364;12.384;2023-05-27T14:37:21;3.60;;;2.15;;
14933;SDS011;7560;51.364;12.384;2023-05-27T14:42:23;4.25;;;1.85;;
14933;SDS011;7560;51.364;12.384;2023-05-27T14:47:25;5.18;;;2.65;;
14933;SDS011;7560;51.364;12.384;2023-05-27T14:52:27;4.75;;;2.13;;
14933;SDS011;7560;51.364;12.384;2023-05-27T14:57:29;4.78;;;2.30;;
14933;SDS011;7560;51.364;12.384;2023-05-27T15:02:35;4.47;;;2.40;;
14933;SDS011;7560;51.364;12.384;2023-05-27T15:07:37;4.43;;;2.40;;
14933;SDS011;7560;51.364;12.384;2023-05-27T15:12:41;4.63;;;2.00;;
14933;SDS011;7560;51.364;12.384;2023-05-27T15:17:44;3.65;;;2.00;;
14933;SDS011;7560;51.364;12.384;2023-05-27T15:22:46;4.55;;;1.90;;
14933;SDS011;7560;51.364;12.384;2023-05-27T15:27:48;4.57;;;1.98;;
14933;SDS011;7560;51.364;12.384;2023-05-27T15:32:50;3.40;;;1.98;;
14933;SDS011;7560;51.364;12.384;2023-05-27T15:37:52;4.47;;;2.13;;
14933;SDS011;7560;51.364;12.384;2023-05-27T15:42:57;4.60;;;2.05;;
14933;SDS011;7560;51.364;12.384;2023-05-27T15:47:59;3.35;;;1.80;;
14933;SDS011;7560;51.364;12.384;2023-05-27T15:53:01;3.28;;;1.98;;
14933;SDS011;7560;51.364;12.384;2023-05-27T15:58:03;2.90;;;1.75;;
14933;SDS011;7560;51.364;12.384;2023-05-27T16:03:05;4.28;;;1.88;;
14933;SDS011;7560;51.364;12.384;2023-05-27T16:08:07;2.83;;;1.60;;
14933;SDS011;7560;51.364;12.384;2023-05-27T16:13:09;3.03;;;1.65;;
14933;SDS011;7560;51.364;12.384;2023-05-27T16:18:10;3.80;;;1.80;;
14933;SDS011;7560;51.364;12.384;2023-05-27T16:23:13;6.03;;;2.60;;
14933;SDS011;7560;51.364;12.384;2023-05-27T16:28:15;3.53;;;2.08;;
14933;SDS011;7560;51.364;12.384;2023-05-27T16:33:17;2.42;;;1.60;;
14933;SDS011;7560;51.364;12.384;2023-05-27T16:38:19;3.08;;;2.00;;
14933;SDS011;7560;51.364;12.384;2023-05-27T16:43:22;2.80;;;1.88;;
14933;SDS011;7560;51.364;12.384;2023-05-27T16:48:24;3.95;;;2.10;;
14933;SDS011;7560;51.364;12.384;2023-05-27T16:53:26;2.92;;;1.90;;
14933;SDS011;7560;51.364;12.384;2023-05-27T16:58:27;2.50;;;2.08;;
14933;SDS011;7560;51.364;12.384;2023-05-27T17:03:29;3.33;;;2.40;;
14933;SDS011;7560;51.364;12.384;2023-05-27T17:08:31;3.50;;;2.03;;
14933;SDS011;7560;51.364;12.384;2023-05-27T17:13:33;4.70;;;2.00;;
14933;SDS011;7560;51.364;12.384;2023-05-27T17:18:35;3.10;;;2.20;;
14933;SDS011;7560;51.364;12.384;2023-05-27T17:23:36;4.88;;;2.00;;
14933;SDS011;7560;51.364;12.384;2023-05-27T17:28:38;5.22;;;2.47;;
14933;SDS011;7560;51.364;12.384;2023-05-27T17:33:40;5.18;;;2.38;;
14933;SDS011;7560;51.364;12.384;2023-05-27T17:38:42;3.75;;;2.28;;
14933;SDS011;7560;51.364;12.384;2023-05-27T17:43:44;3.15;;;2.20;;
14933;SDS011;7560;51.364;12.384;2023-05-27T17:48:45;4.63;;;2.30;;
14933;SDS011;7560;51.364;12.384;2023-05-27T17:53:47;5.47;;;2.92;;
14933;SDS011;7560;51.364;12.384;2023-05-27T17:58:53;4.28;;;2.50;;
14933;SDS011;7560;51.364;12.384;2023-05-27T18:03:55;5.25;;;2.13;;
14933;SDS011;7560;51.364;12.384;2023-05-27T18:08:57;5.75;;;2.45;;
14933;SDS011;7560;51.364;12.384;2023-05-27T18:13:58;3.13;;;2.20;;
14933;SDS011;7560;51.364;12.384;2023-05-27T18:19:00;4.05;;;3.00;;
14933;SDS011;7560;51.364;12.384;2023-05-27T18:24:02;4.53;;;2.40;;
14933;SDS011;7560;51.364;12.384;2023-05-27T18:29:04;6.35;;;3.10;;
14933;SDS011;7560;51.364;12.384;2023-05-27T18:34:08;4.68;;;2.60;;
14933;SDS011;7560;51.364;12.384;2023-05-27T18:39:10;6.50;;;3.80;;
14933;SDS011;7560;51.364;12.384;2023-05-27T18:44:12;5.78;;;3.50;;
14933;SDS011;7560;51.364;12.384;2023-05-27T18:49:14;4.68;;;3.70;;
14933;SDS011;7560;51.364;12.384;2023-05-27T18:54:15;6.85;;;3.42;;
14933;SDS011;7560;51.364;12.384;2023-05-27T18:59:17;10.90;;;4.43;;
14933;SDS011;7560;51.364;12.384;2023-05-27T19:04:19;8.48;;;4.38;;
14933;SDS011;7560;51.364;12.384;2023-05-27T19:09:23;7.53;;;3.38;;
14933;SDS011;7560;51.364;12.384;2023-05-27T19:14:26;6.15;;;3.13;;
14933;SDS011;7560;51.364;12.384;2023-05-27T19:19:27;5.75;;;3.50;;
14933;SDS011;7560;51.364;12.384;2023-05-27T19:24:30;6.13;;;3.35;;
14933;SDS011;7560;51.364;12.384;2023-05-27T19:29:31;9.27;;;4.72;;
14933;SDS011;7560;51.364;12.384;2023-05-27T19:34:33;6.75;;;4.50;;
14933;SDS011;7560;51.364;12.384;2023-05-27T19:39:36;9.85;;;4.80;;
14933;SDS011;7560;51.364;12.384;2023-05-27T19:44:38;12.40;;;5.38;;
14933;SDS011;7560;51.364;12.384;2023-05-27T19:49:40;10.27;;;5.07;;
14933;SDS011;7560;51.364;12.384;2023-05-27T19:54:42;7.97;;;4.75;;
14933;SDS011;7560;51.364;12.384;2023-05-27T19:59:43;11.52;;;6.20;;
14933;SDS011;7560;51.364;12.384;2023-05-27T20:04:45;15.10;;;6.95;;
14933;SDS011;7560;51.364;12.384;2023-05-27T20:09:47;12.05;;;6.70;;
14933;SDS011;7560;51.364;12.384;2023-05-27T20:14:49;13.65;;;7.93;;
14933;SDS011;7560;51.364;12.384;2023-05-27T20:19:51;19.65;;;12.15;;
14933;SDS011;7560;51.364;12.384;2023-05-27T20:24:52;11.63;;;7.70;;
14933;SDS011;7560;51.364;12.384;2023-05-27T20:29:56;12.55;;;7.85;;
14933;SDS011;7560;51.364;12.384;2023-05-27T20:34:58;12.88;;;7.97;;
14933;SDS011;7560;51.364;12.384;2023-05-27T20:40:01;12.45;;;8.00;;
14933;SDS011;7560;51.364;12.384;2023-05-27T20:45:04;15.20;;;8.18;;
14933;SDS011;7560;51.364;12.384;2023-05-27T20:50:07;11.45;;;8.57;;
14933;SDS011;7560;51.364;12.384;2023-05-27T20:55:09;12.73;;;8.50;;
14933;SDS011;7560;51.364;12.384;2023-05-27T21:00:11;13.52;;;10.02;;
14933;SDS011;7560;51.364;12.384;2023-05-27T21:05:13;15.10;;;10.52;;
14933;SDS011;7560;51.364;12.384;2023-05-27T21:10:16;17.10;;;10.52;;
14933;SDS011;7560;51.364;12.384;2023-05-27T21:15:18;15.73;;;10.23;;
14933;SDS011;7560;51.364;12.384;2023-05-27T21:20:19;17.25;;;10.15;;
14933;SDS011;7560;51.364;12.384;2023-05-27T21:25:21;14.73;;;10.48;;
14933;SDS011;7560;51.364;12.384;2023-05-27T21:30:23;14.68;;;10.57;;
14933;SDS011;7560;51.364;12.384;2023-05-27T21:35:25;12.77;;;9.55;;
14933;SDS011;7560;51.364;12.384;2023-05-27T21:40:27;17.88;;;10.80;;
14933;SDS011;7560;51.364;12.384;2023-05-27T21:45:29;16.13;;;11.20;;
14933;SDS011;7560;51.364;12.384;2023-05-27T21:50:34;17.65;;;10.90;;
14933;SDS011;7560;51.364;12.384;2023-05-27T21:55:36;14.98;;;10.52;;
14933;SDS011;7560;51.364;12.384;2023-05-27T22:00:38;16.67;;;11.10;;
14933;SDS011;7560;51.364;12.384;2023-05-27T22:05:40;16.98;;;11.63;;
14933;SDS011;7560;51.364;12.384;2023-05-27T22:10:42;20.17;;;12.60;;
14933;SDS011;7560;51.364;12.384;2023-05-27T22:15:44;20.33;;;13.50;;
14933;SDS011;7560;51.364;12.384;2023-05-27T22:20:45;19.10;;;13.15;;
14933;SDS011;7560;51.364;12.384;2023-05-27T22:25:47;20.17;;;13.30;;
14933;SDS011;7560;51.364;12.384;2023-05-27T22:30:49;20.70;;;13.23;;
14933;SDS011;7560;51.364;12.384;2023-05-27T22:35:51;20.48;;;13.65;;
14933;SDS011;7560;51.364;12.384;2023-05-27T22:40:53;19.85;;;14.75;;
14933;SDS011;7560;51.364;12.384;2023-05-27T22:45:55;22.42;;;15.50;;
14933;SDS011;7560;51.364;12.384;2023-05-27T22:50:57;19.33;;;14.32;;
14933;SDS011;7560;51.364;12.384;2023-05-27T22:55:58;22.90;;;15.82;;
14933;SDS011;7560;51.364;12.384;2023-05-27T23:01:00;22.48;;;14.25;;
14933;SDS011;7560;51.364;12.384;2023-05-27T23:06:02;20.75;;;14.25;;
14933;SDS011;7560;51.364;12.384;2023-05-27T23:11:04;18.38;;;13.43;;
14933;SDS011;7560;51.364;12.384;2023-05-27T23:16:06;19.23;;;12.80;;
14933;SDS011;7560;51.364;12.384;2023-05-27T23:21:09;16.80;;;12.50;;
14933;SDS011;7560;51.364;12.384;2023-05-27T23:26:11;16.83;;;11.75;;
14933;SDS011;7560;51.364;12.384;2023-05-27T23:31:13;15.73;;;11.25;;
14933;SDS011;7560;51.364;12.384;2023-05-27T23:36:15;14.25;;;11.02;;
14933;SDS011;7560;51.364;12.384;2023-05-27T23:41:17;13.18;;;10.32;;
14933;SDS011;7560;51.364;12.384;2023-05-27T23:46:19;15.18;;;10.45;;
14933;SDS011;7560;51.364;12.384;2023-05-27T23:51:20;14.65;;;10.43;;
14933;SDS011;7560;51.364;12.384;2023-05-27T23:56:22;13.95;;;9.57;;
